Aviation Digital Data Service (ADDS)

Output produced by METARs form (2245 UTC 28 January 2020)
found at http://aviationweather.gov/metar/data/
 
KSVH 282235Z AUTO 16004KT 10SM CLR 11/02 A2994 RMK AO2 T01120015
KSVH 282215Z AUTO 14003KT 10SM CLR 12/01 A2994 RMK AO2 T01200012
KSVH 282155Z AUTO 19003KT 10SM CLR 12/01 A2993 RMK AO2 T01240010